createdAt,value
2022-10-20T00:01:30.132Z,6.00
2022-10-20T00:03:58.416Z,8.07
2022-10-20T00:06:31.319Z,4.65
2022-10-20T00:09:02.859Z,7.85
2022-10-20T00:11:31.057Z,5.72
2022-10-20T00:14:01.369Z,9.73
2022-10-20T00:16:34.988Z,6.47
2022-10-20T00:19:03.321Z,6.55
2022-10-20T00:21:32.299Z,7.60
2022-10-20T00:24:01.832Z,8.38
2022-10-20T00:26:31.580Z,8.85
2022-10-20T00:29:03.760Z,11.23
2022-10-20T00:31:32.180Z,9.40
2022-10-20T00:34:00.275Z,6.80
2022-10-20T00:36:28.324Z,10.20
2022-10-20T00:39:05.039Z,6.05
2022-10-20T00:41:34.104Z,7.82
2022-10-20T00:44:40.761Z,9.48
2022-10-20T00:47:15.442Z,8.20
2022-10-20T00:49:43.983Z,8.45
2022-10-20T00:52:12.326Z,7.65
2022-10-20T00:54:45.119Z,7.80
2022-10-20T00:57:13.265Z,9.77
2022-10-20T00:59:41.722Z,12.65
2022-10-20T01:02:10.861Z,25.88
2022-10-20T01:04:39.716Z,27.33
2022-10-20T01:07:10.648Z,33.97
2022-10-20T01:09:39.568Z,35.10
2022-10-20T01:12:37.996Z,31.42
2022-10-20T01:15:07.978Z,25.67
2022-10-20T01:17:54.309Z,27.92
2022-10-20T01:20:31.044Z,20.58
2022-10-20T01:23:22.543Z,17.20
2022-10-20T01:26:12.136Z,16.60
2022-10-20T01:29:06.069Z,13.60
2022-10-20T01:31:53.283Z,14.52
2022-10-20T01:34:46.914Z,12.85
2022-10-20T01:37:28.417Z,12.55
2022-10-20T01:40:22.449Z,14.63
2022-10-20T01:42:57.186Z,13.88
2022-10-20T01:45:28.136Z,18.50
2022-10-20T01:48:01.564Z,24.23
2022-10-20T01:50:33.859Z,16.63
2022-10-20T01:53:02.710Z,17.80
2022-10-20T01:55:31.729Z,14.05
2022-10-20T01:58:17.861Z,18.50
2022-10-20T02:00:46.820Z,13.68
2022-10-20T02:03:41.479Z,14.20
2022-10-20T02:06:25.318Z,12.07
2022-10-20T02:09:00.183Z,15.73
2022-10-20T02:11:40.882Z,16.50
2022-10-20T02:16:53.560Z,16.55
2022-10-20T02:19:26.905Z,17.23
2022-10-20T02:21:56.925Z,12.18
2022-10-20T02:24:29.839Z,12.80
2022-10-20T02:27:05.620Z,14.45
2022-10-20T02:29:39.210Z,28.75
2022-10-20T02:32:08.399Z,44.67
2022-10-20T02:34:40.940Z,31.08
2022-10-20T02:40:07.320Z,19.73
2022-10-20T02:42:35.968Z,16.65
2022-10-20T02:45:07.114Z,18.15
2022-10-20T02:47:35.694Z,16.05
2022-10-20T02:50:08.676Z,11.27
2022-10-20T02:52:36.997Z,13.43
2022-10-20T02:55:07.112Z,11.00
2022-10-20T02:57:35.379Z,14.13
2022-10-20T03:00:07.962Z,10.35
2022-10-20T03:02:35.891Z,11.90
2022-10-20T03:05:04.312Z,13.27
2022-10-20T03:07:35.127Z,15.93
2022-10-20T03:10:04.278Z,17.90
2022-10-20T03:12:32.563Z,14.38
2022-10-20T03:15:00.786Z,14.27
2022-10-20T03:17:31.455Z,15.32
2022-10-20T03:20:04.841Z,15.70
2022-10-20T03:25:03.943Z,14.40
2022-10-20T03:27:31.775Z,15.63
2022-10-20T03:29:59.879Z,17.98
2022-10-20T03:32:27.828Z,19.20
2022-10-20T03:34:55.997Z,21.50
2022-10-20T03:37:23.835Z,29.33
2022-10-20T03:39:51.924Z,32.83
2022-10-20T03:42:19.729Z,30.92
2022-10-20T03:44:50.910Z,36.53
2022-10-20T03:49:49.112Z,22.58
2022-10-20T03:52:19.533Z,22.17
2022-10-20T03:54:52.506Z,23.05
2022-10-20T03:57:23.887Z,22.23
2022-10-20T03:59:54.995Z,20.30
2022-10-20T04:02:35.146Z,54.33
2022-10-20T04:05:05.552Z,74.47
2022-10-20T04:07:37.855Z,130.60
2022-10-20T04:10:09.956Z,408.90
2022-10-20T04:12:38.224Z,718.10
2022-10-20T04:15:08.000Z,326.67
2022-10-20T04:17:37.130Z,148.50
2022-10-20T04:20:08.781Z,158.52
2022-10-20T04:22:36.977Z,76.93
2022-10-20T04:25:05.894Z,130.88
2022-10-20T04:27:36.953Z,88.93
2022-10-20T04:30:06.348Z,49.92
2022-10-20T04:32:34.338Z,29.45
2022-10-20T04:35:03.338Z,31.00
2022-10-20T04:37:31.170Z,51.05
2022-10-20T04:39:59.272Z,65.55
2022-10-20T04:42:27.187Z,118.78
2022-10-20T04:44:55.430Z,120.95
2022-10-20T04:47:25.679Z,135.98
2022-10-20T04:49:53.795Z,159.82
2022-10-20T04:52:26.513Z,174.00
2022-10-20T04:54:54.681Z,158.48
2022-10-20T04:57:25.468Z,147.65
2022-10-20T05:00:01.877Z,128.43
2022-10-20T05:02:32.434Z,111.32
2022-10-20T05:05:00.561Z,110.85
2022-10-20T05:07:30.755Z,122.63
2022-10-20T05:10:00.915Z,116.28
2022-10-20T05:12:28.790Z,129.13
2022-10-20T05:17:30.314Z,104.90
2022-10-20T05:20:00.689Z,81.30
2022-10-20T05:22:33.221Z,73.22
2022-10-20T05:25:24.392Z,70.53
2022-10-20T05:27:49.654Z,75.22
2022-10-20T05:30:21.014Z,75.05
2022-10-20T05:32:48.856Z,74.88
2022-10-20T05:35:17.833Z,70.28
2022-10-20T05:37:45.797Z,65.45
2022-10-20T05:40:13.966Z,67.65
2022-10-20T05:42:44.933Z,66.13
2022-10-20T05:45:13.520Z,94.28
2022-10-20T05:47:43.212Z,113.78
2022-10-20T05:50:11.982Z,84.68
2022-10-20T05:52:43.140Z,141.55
2022-10-20T05:55:11.602Z,151.70
2022-10-20T05:57:42.471Z,135.85
2022-10-20T06:00:16.051Z,113.18
2022-10-20T06:02:44.099Z,111.50
2022-10-20T06:05:12.140Z,101.05
2022-10-20T06:07:39.942Z,90.18
2022-10-20T06:10:08.380Z,96.10
2022-10-20T06:12:40.683Z,123.43
2022-10-20T06:15:09.407Z,122.50
2022-10-20T06:17:37.264Z,119.22
2022-10-20T06:20:05.684Z,147.50
2022-10-20T06:22:33.740Z,120.65
2022-10-20T06:25:02.259Z,121.40
2022-10-20T06:27:30.317Z,76.65
2022-10-20T06:29:58.537Z,69.10
2022-10-20T06:32:26.766Z,72.25
2022-10-20T06:34:57.349Z,95.40
2022-10-20T06:37:30.289Z,64.10
2022-10-20T06:39:59.086Z,56.90
2022-10-20T06:42:29.476Z,61.60
2022-10-20T06:44:58.985Z,60.65
2022-10-20T06:47:33.459Z,79.35
2022-10-20T06:50:01.772Z,58.70
2022-10-20T06:52:36.065Z,57.13
2022-10-20T06:55:05.189Z,59.47
2022-10-20T06:57:33.574Z,65.80
2022-10-20T07:00:01.758Z,47.30
2022-10-20T07:02:32.263Z,37.63
2022-10-20T07:05:03.631Z,34.67
2022-10-20T07:09:59.652Z,28.73
2022-10-20T07:12:27.458Z,29.65
2022-10-20T07:14:55.540Z,45.58
2022-10-20T07:17:23.493Z,62.22
2022-10-20T07:19:51.643Z,68.07
2022-10-20T07:22:19.496Z,59.42
2022-10-20T07:24:47.702Z,53.30
2022-10-20T07:27:15.895Z,49.30
2022-10-20T07:29:44.005Z,46.00
2022-10-20T07:32:11.982Z,45.00
2022-10-20T07:34:40.183Z,38.72
2022-10-20T07:37:07.959Z,40.95
2022-10-20T07:39:36.023Z,31.45
2022-10-20T07:42:04.043Z,44.35
2022-10-20T07:44:32.187Z,31.63
2022-10-20T07:47:00.027Z,36.35
2022-10-20T07:49:44.562Z,36.75
2022-10-20T07:52:12.867Z,31.48
2022-10-20T07:54:41.085Z,29.05
2022-10-20T07:57:08.908Z,22.27
2022-10-20T07:59:37.074Z,24.77
2022-10-20T08:02:05.077Z,32.38
2022-10-20T08:04:33.363Z,40.75
2022-10-20T08:07:01.291Z,41.90
2022-10-20T08:09:29.728Z,43.22
2022-10-20T08:11:57.620Z,42.50
2022-10-20T08:14:32.167Z,37.17
2022-10-20T08:17:03.255Z,33.70
2022-10-20T08:22:13.424Z,28.38
2022-10-20T08:24:42.029Z,30.15
2022-10-20T08:27:12.759Z,14.50
2022-10-20T08:29:40.853Z,22.33
2022-10-20T08:32:09.137Z,22.02
2022-10-20T08:34:37.628Z,21.98
2022-10-20T08:37:05.446Z,21.63
2022-10-20T08:39:33.654Z,15.73
2022-10-20T08:42:08.573Z,12.63
2022-10-20T08:44:40.210Z,10.85
2022-10-20T08:47:33.572Z,13.20
2022-10-20T08:50:05.434Z,12.93
2022-10-20T08:52:34.068Z,16.33
2022-10-20T08:55:05.046Z,15.93
2022-10-20T08:57:36.533Z,10.55
2022-10-20T09:00:18.964Z,9.82
2022-10-20T09:02:51.639Z,14.10
2022-10-20T09:05:25.308Z,14.27
2022-10-20T09:07:55.127Z,12.50
2022-10-20T09:10:37.056Z,12.77
2022-10-20T09:13:16.465Z,14.75
2022-10-20T09:15:44.933Z,7.20
2022-10-20T09:18:15.094Z,9.57
2022-10-20T09:20:46.605Z,9.23
2022-10-20T09:23:40.050Z,11.13
2022-10-20T09:26:45.035Z,9.95
2022-10-20T09:29:22.152Z,14.75
2022-10-20T09:31:54.012Z,11.95
2022-10-20T09:34:31.395Z,8.38
2022-10-20T09:37:13.772Z,6.70
2022-10-20T09:39:55.578Z,11.57
2022-10-20T09:42:36.636Z,8.52
2022-10-20T09:45:21.981Z,6.63
2022-10-20T09:47:56.706Z,5.90
2022-10-20T09:50:33.672Z,6.05
2022-10-20T09:53:06.238Z,6.20
2022-10-20T09:55:37.782Z,13.75
2022-10-20T09:58:06.630Z,7.22
2022-10-20T10:00:37.639Z,9.88
2022-10-20T10:03:11.307Z,4.18
2022-10-20T10:05:39.551Z,8.95
2022-10-20T10:08:15.614Z,4.72
2022-10-20T10:10:46.794Z,8.63
2022-10-20T10:13:27.472Z,4.47
2022-10-20T10:16:07.796Z,10.82
2022-10-20T10:18:37.814Z,8.13
2022-10-20T10:21:11.266Z,8.60
2022-10-20T10:23:59.373Z,7.03
2022-10-20T10:26:43.039Z,7.55
2022-10-20T10:29:29.147Z,6.05
2022-10-20T10:32:23.518Z,7.68
2022-10-20T10:35:28.019Z,10.98
2022-10-20T10:37:56.464Z,6.00
2022-10-20T10:40:59.671Z,5.15
2022-10-20T10:43:37.320Z,4.95
2022-10-20T10:46:27.076Z,4.28
2022-10-20T10:49:22.306Z,19.58
2022-10-20T10:51:50.485Z,7.47
2022-10-20T10:54:55.547Z,26.80
2022-10-20T10:57:31.368Z,9.88
2022-10-20T11:00:02.354Z,5.97
2022-10-20T11:02:54.773Z,69.85
2022-10-20T11:06:07.246Z,11.55
2022-10-20T11:08:47.394Z,9.07
2022-10-20T11:11:40.785Z,11.40
2022-10-20T11:14:32.340Z,17.10
2022-10-20T11:17:12.111Z,9.05
2022-10-20T11:20:01.151Z,8.55
2022-10-20T11:23:13.804Z,15.10
2022-10-20T11:25:49.770Z,145.02
2022-10-20T11:28:47.783Z,110.85
2022-10-20T11:31:43.030Z,72.53
2022-10-20T11:34:35.644Z,84.80
2022-10-20T11:37:07.933Z,68.60
2022-10-20T11:39:47.658Z,147.48
2022-10-20T11:42:35.602Z,135.35
2022-10-20T11:45:16.236Z,141.35
2022-10-20T11:47:46.713Z,30.58
2022-10-20T11:50:14.975Z,65.85
2022-10-20T11:52:48.888Z,52.88
2022-10-20T11:55:27.339Z,39.95
2022-10-20T11:58:22.089Z,346.58
2022-10-20T12:04:05.399Z,100.53
2022-10-20T12:07:09.526Z,49.15
2022-10-20T12:09:55.661Z,983.20
2022-10-20T12:12:39.201Z,772.63
2022-10-20T12:15:23.235Z,154.82
2022-10-20T12:17:58.553Z,129.25
2022-10-20T12:20:26.576Z,38.42
2022-10-20T12:23:02.753Z,83.43
2022-10-20T12:25:30.851Z,105.28
2022-10-20T12:28:25.237Z,51.67
2022-10-20T12:31:04.456Z,41.20
2022-10-20T12:33:59.580Z,41.22
2022-10-20T12:36:27.830Z,8.70
2022-10-20T12:39:14.185Z,90.68
2022-10-20T12:42:22.390Z,27.23
2022-10-20T12:44:51.353Z,17.92
2022-10-20T12:47:26.627Z,15.13
2022-10-20T12:49:58.283Z,12.45
2022-10-20T12:52:33.675Z,121.95
2022-10-20T12:55:14.048Z,299.00
2022-10-20T12:57:44.403Z,122.28
2022-10-20T13:00:24.343Z,71.87
2022-10-20T13:02:57.372Z,106.82
2022-10-20T13:05:39.226Z,118.78
2022-10-20T13:08:23.946Z,99.47
2022-10-20T13:10:54.949Z,150.02
2022-10-20T13:13:23.147Z,96.50
2022-10-20T13:15:53.562Z,189.65
2022-10-20T13:18:32.159Z,76.40
2022-10-20T13:20:59.885Z,199.13
2022-10-20T13:23:34.468Z,256.08
2022-10-20T13:26:23.573Z,70.35
2022-10-20T13:28:57.316Z,102.15
2022-10-20T13:31:48.678Z,467.02
2022-10-20T13:34:34.343Z,189.30
2022-10-20T13:37:47.200Z,37.47
2022-10-20T13:40:23.767Z,630.78
2022-10-20T13:43:03.834Z,147.18
2022-10-20T13:45:37.774Z,65.50
2022-10-20T13:48:16.476Z,48.33
2022-10-20T13:50:50.445Z,45.67
2022-10-20T13:53:26.727Z,33.83
2022-10-20T13:56:00.108Z,42.35
2022-10-20T13:58:28.384Z,40.83
2022-10-20T14:01:03.943Z,28.75
2022-10-20T14:03:40.516Z,34.70
2022-10-20T14:06:32.945Z,22.35
2022-10-20T14:09:15.031Z,12.23
2022-10-20T14:11:49.851Z,30.98
2022-10-20T14:14:22.895Z,45.75
2022-10-20T14:17:06.152Z,45.25
2022-10-20T14:19:36.356Z,84.20
2022-10-20T14:22:22.824Z,52.35
2022-10-20T14:24:56.739Z,34.78
2022-10-20T14:27:31.959Z,20.92
2022-10-20T14:30:08.602Z,12.30
2022-10-20T14:32:40.584Z,12.70
2022-10-20T14:35:20.211Z,32.25
2022-10-20T14:38:06.295Z,26.00
2022-10-20T14:40:36.910Z,23.15
2022-10-20T14:45:41.368Z,20.38
2022-10-20T14:48:16.708Z,19.15
2022-10-20T14:50:44.603Z,17.98
2022-10-20T14:53:32.423Z,26.52
2022-10-20T14:56:02.851Z,35.20
2022-10-20T14:58:36.475Z,28.55
2022-10-20T15:01:28.660Z,20.45
2022-10-20T15:04:15.531Z,27.25
2022-10-20T15:06:44.316Z,24.52
2022-10-20T15:09:33.303Z,28.17
2022-10-20T15:12:29.823Z,30.48
2022-10-20T15:15:19.172Z,28.80
2022-10-20T15:17:48.147Z,28.17
2022-10-20T15:20:40.727Z,31.52
2022-10-20T15:23:23.235Z,26.23
2022-10-20T15:26:13.199Z,24.48
2022-10-20T15:28:51.211Z,26.98
2022-10-20T15:31:23.103Z,39.00
2022-10-20T15:33:58.563Z,46.50
2022-10-20T15:36:30.154Z,55.63
2022-10-20T15:38:58.110Z,87.18
2022-10-20T15:41:31.633Z,186.68
2022-10-20T15:44:19.815Z,324.33
2022-10-20T15:46:49.824Z,189.32
2022-10-20T15:49:18.118Z,141.10
2022-10-20T15:51:48.777Z,281.08
2022-10-20T15:54:21.804Z,486.77
2022-10-20T15:56:50.263Z,608.58
2022-10-20T15:59:18.053Z,496.67
2022-10-20T16:01:46.266Z,252.10
2022-10-20T16:04:18.534Z,275.55
2022-10-20T16:06:47.605Z,184.77
2022-10-20T16:09:16.402Z,162.82
2022-10-20T16:11:45.586Z,120.10
2022-10-20T16:14:15.846Z,98.30
2022-10-20T16:16:47.128Z,111.93
2022-10-20T16:21:42.946Z,90.22
2022-10-20T16:24:11.755Z,71.22
2022-10-20T16:26:40.394Z,62.53
2022-10-20T16:29:08.249Z,67.25
2022-10-20T16:31:36.504Z,71.63
2022-10-20T16:34:04.515Z,83.05
2022-10-20T16:36:32.577Z,57.50
2022-10-20T16:39:01.125Z,70.68
2022-10-20T16:41:29.278Z,73.63
2022-10-20T16:44:01.179Z,73.65
2022-10-20T16:46:32.856Z,56.42
2022-10-20T16:49:00.652Z,70.55
2022-10-20T16:51:28.903Z,79.25
2022-10-20T16:54:02.871Z,104.55
2022-10-20T16:56:31.633Z,92.22
2022-10-20T16:59:02.229Z,86.45
2022-10-20T17:01:31.959Z,70.22
2022-10-20T17:03:59.818Z,60.80
2022-10-20T17:06:28.027Z,160.20
2022-10-20T17:08:58.179Z,142.65
2022-10-20T17:11:29.680Z,110.57
2022-10-20T17:13:58.646Z,103.00
2022-10-20T17:16:33.097Z,107.75
2022-10-20T17:19:02.679Z,108.38
2022-10-20T17:21:32.493Z,94.43
2022-10-20T17:24:01.441Z,93.28
2022-10-20T17:26:30.918Z,86.10
2022-10-20T17:29:00.902Z,84.20
2022-10-20T17:31:30.225Z,77.82
2022-10-20T17:33:59.002Z,72.55
2022-10-20T17:36:29.190Z,69.22
2022-10-20T17:39:03.639Z,68.47
2022-10-20T17:41:32.124Z,66.68
2022-10-20T17:44:01.399Z,66.53
2022-10-20T17:46:29.582Z,83.28
2022-10-20T17:48:57.492Z,85.57
2022-10-20T17:51:34.481Z,78.93
2022-10-20T17:54:04.132Z,74.05
2022-10-20T17:56:38.429Z,62.67
2022-10-20T17:59:08.015Z,63.05
2022-10-20T18:01:39.155Z,66.28
2022-10-20T18:04:15.658Z,77.30
2022-10-20T18:06:45.176Z,76.35
2022-10-20T18:09:16.348Z,76.77
2022-10-20T18:11:47.893Z,78.60
2022-10-20T18:14:17.307Z,90.38
2022-10-20T18:16:45.849Z,75.78
2022-10-20T18:19:18.673Z,75.85
2022-10-20T18:21:47.549Z,73.50
2022-10-20T18:24:17.227Z,78.85
2022-10-20T18:26:46.615Z,73.40
2022-10-20T18:29:16.064Z,77.30
2022-10-20T18:31:48.525Z,85.50
2022-10-20T18:34:20.861Z,67.95
2022-10-20T18:36:51.195Z,61.05
2022-10-20T18:39:19.053Z,60.10
2022-10-20T18:41:50.317Z,57.78
2022-10-20T18:44:19.673Z,57.55
2022-10-20T18:46:48.359Z,49.60
2022-10-20T18:49:20.660Z,55.25
2022-10-20T18:51:50.837Z,54.60
2022-10-20T18:54:23.512Z,57.65
2022-10-20T18:56:51.879Z,57.97
2022-10-20T18:59:19.956Z,57.72
2022-10-20T19:01:48.644Z,59.35
2022-10-20T19:04:16.687Z,57.97
2022-10-20T19:06:47.098Z,53.15
2022-10-20T19:09:20.488Z,38.10
2022-10-20T19:14:17.745Z,51.85
2022-10-20T19:16:50.020Z,56.65
2022-10-20T19:19:17.961Z,61.60
2022-10-20T19:21:46.208Z,70.15
2022-10-20T19:24:17.263Z,77.40
2022-10-20T19:26:56.964Z,75.32
2022-10-20T19:29:36.398Z,55.10
2022-10-20T19:32:06.143Z,74.03
2022-10-20T19:34:39.781Z,65.13
2022-10-20T19:37:08.388Z,62.03
2022-10-20T19:39:39.537Z,39.30
2022-10-20T19:42:09.481Z,27.80
2022-10-20T19:44:38.377Z,55.65
2022-10-20T19:47:08.317Z,47.53
2022-10-20T19:49:37.915Z,65.80
2022-10-20T19:52:07.229Z,209.17
2022-10-20T19:54:35.508Z,236.68
2022-10-20T19:57:03.995Z,141.77
2022-10-20T19:59:31.922Z,180.30
2022-10-20T20:02:00.149Z,87.47
2022-10-20T20:04:30.569Z,75.60
2022-10-20T20:07:02.206Z,144.30
2022-10-20T20:09:31.121Z,111.25
2022-10-20T20:11:59.946Z,118.25
2022-10-20T20:14:28.321Z,92.40
2022-10-20T20:16:57.724Z,64.88
2022-10-20T20:19:25.873Z,47.83
2022-10-20T20:21:54.374Z,46.50
2022-10-20T20:24:24.824Z,41.80
2022-10-20T20:26:55.180Z,38.60
2022-10-20T20:29:23.258Z,38.03
2022-10-20T20:31:51.488Z,37.67
2022-10-20T20:34:21.938Z,50.28
2022-10-20T20:36:53.293Z,61.05
2022-10-20T20:39:21.381Z,69.10
2022-10-20T20:41:49.785Z,68.65
2022-10-20T20:44:21.021Z,53.45
2022-10-20T20:46:49.265Z,43.00
2022-10-20T20:49:17.303Z,32.42
2022-10-20T20:51:50.588Z,28.75
2022-10-20T20:54:21.127Z,28.48
2022-10-20T20:56:54.342Z,28.73
2022-10-20T20:59:24.349Z,27.58
2022-10-20T21:04:24.774Z,34.25
2022-10-20T21:07:03.055Z,32.03
2022-10-20T21:09:31.736Z,36.13
2022-10-20T21:12:07.523Z,34.30
2022-10-20T21:14:40.890Z,35.30
2022-10-20T21:17:09.510Z,32.95
2022-10-20T21:19:37.395Z,33.17
2022-10-20T21:22:08.633Z,28.90
2022-10-20T21:24:40.133Z,39.63
2022-10-20T21:27:08.362Z,38.08
2022-10-20T21:29:41.860Z,47.70
2022-10-20T21:32:11.121Z,56.10
2022-10-20T21:34:39.133Z,58.50
2022-10-20T21:37:07.319Z,39.35
2022-10-20T21:39:35.337Z,40.03
2022-10-20T21:42:03.556Z,45.65
2022-10-20T21:44:34.481Z,44.35
2022-10-20T21:47:02.573Z,35.92
2022-10-20T21:49:30.570Z,32.20
2022-10-20T21:51:58.785Z,30.25
2022-10-20T21:54:28.747Z,31.92
2022-10-20T21:56:57.705Z,52.08
2022-10-20T21:59:27.918Z,50.67
2022-10-20T22:02:00.975Z,48.58
2022-10-20T22:04:30.485Z,43.53
2022-10-20T22:06:59.870Z,50.15
2022-10-20T22:09:27.988Z,36.03
2022-10-20T22:11:58.722Z,32.05
2022-10-20T22:14:26.735Z,34.60
2022-10-20T22:16:56.844Z,40.00
2022-10-20T22:19:25.320Z,38.33
2022-10-20T22:21:54.480Z,33.78
2022-10-20T22:24:23.743Z,35.97
2022-10-20T22:26:53.234Z,42.22
2022-10-20T22:29:22.764Z,53.38
2022-10-20T22:31:51.406Z,46.78
2022-10-20T22:34:19.349Z,38.83
2022-10-20T22:36:47.622Z,37.17
2022-10-20T22:39:15.565Z,56.30
2022-10-20T22:41:43.877Z,44.33
2022-10-20T22:44:11.940Z,39.60
2022-10-20T22:46:40.098Z,47.75
2022-10-20T22:49:08.061Z,44.15
2022-10-20T22:51:36.425Z,35.33
2022-10-20T22:54:04.499Z,36.28
2022-10-20T22:56:35.576Z,24.00
2022-10-20T22:59:03.508Z,17.80
2022-10-20T23:01:32.117Z,22.80
2022-10-20T23:04:00.074Z,22.38
2022-10-20T23:06:28.316Z,28.58
2022-10-20T23:08:56.885Z,23.48
2022-10-20T23:11:25.671Z,25.98
2022-10-20T23:13:53.646Z,24.48
2022-10-20T23:18:53.284Z,29.20
2022-10-20T23:21:21.403Z,30.45
2022-10-20T23:23:49.369Z,34.17
2022-10-20T23:26:18.064Z,28.35
2022-10-20T23:28:45.879Z,26.85
2022-10-20T23:31:21.504Z,22.17
2022-10-20T23:33:54.008Z,22.48
2022-10-20T23:36:23.020Z,17.90
2022-10-20T23:38:50.895Z,18.10
2022-10-20T23:41:19.694Z,17.38
2022-10-20T23:43:47.493Z,17.67
2022-10-20T23:46:18.612Z,19.52
2022-10-20T23:51:14.888Z,18.17
2022-10-20T23:53:42.738Z,20.98
2022-10-20T23:56:11.204Z,22.00
2022-10-20T23:58:39.148Z,18.55
